sensor_id;sensor_type;location;lat;lon;timestamp;temperature;humidity
75994;DHT22;64680;53.800;9.988;2023-05-10T00:01:11;12.80;1.00
75994;DHT22;64680;53.800;9.988;2023-05-10T00:03:37;12.80;1.00
75994;DHT22;64680;53.800;9.988;2023-05-10T00:06:02;12.70;1.00
75994;DHT22;64680;53.800;9.988;2023-05-10T00:08:28;12.70;1.00
75994;DHT22;64680;53.800;9.988;2023-05-10T00:10:54;12.70;1.00
75994;DHT22;64680;53.800;9.988;2023-05-10T00:13:20;12.70;1.00
75994;DHT22;64680;53.800;9.988;2023-05-10T00:15:46;12.70;1.00
75994;DHT22;64680;53.800;9.988;2023-05-10T00:18:12;12.60;1.00
75994;DHT22;64680;53.800;9.988;2023-05-10T00:20:37;12.50;1.00
75994;DHT22;64680;53.800;9.988;2023-05-10T00:23:03;12.50;1.00
75994;DHT22;64680;53.800;9.988;2023-05-10T00:25:29;12.50;1.00
75994;DHT22;64680;53.800;9.988;2023-05-10T00:27:54;12.50;1.00
75994;DHT22;64680;53.800;9.988;2023-05-10T00:30:23;12.50;1.00
75994;DHT22;64680;53.800;9.988;2023-05-10T00:32:49;12.40;1.00
75994;DHT22;64680;53.800;9.988;2023-05-10T00:35:15;12.40;1.00
75994;DHT22;64680;53.800;9.988;2023-05-10T00:37:41;12.40;1.00
75994;DHT22;64680;53.800;9.988;2023-05-10T00:40:07;12.40;1.00
75994;DHT22;64680;53.800;9.988;2023-05-10T00:42:33;12.40;1.00
75994;DHT22;64680;53.800;9.988;2023-05-10T00:44:59;12.40;1.00
75994;DHT22;64680;53.800;9.988;2023-05-10T00:47:24;12.40;1.00
75994;DHT22;64680;53.800;9.988;2023-05-10T00:49:50;12.40;1.00
75994;DHT22;64680;53.800;9.988;2023-05-10T00:52:16;12.30;1.00
75994;DHT22;64680;53.800;9.988;2023-05-10T00:54:41;12.30;1.00
75994;DHT22;64680;53.800;9.988;2023-05-10T00:57:07;12.30;1.00
75994;DHT22;64680;53.800;9.988;2023-05-10T00:59:33;12.20;1.00
75994;DHT22;64680;53.800;9.988;2023-05-10T01:01:59;12.20;1.00
75994;DHT22;64680;53.800;9.988;2023-05-10T01:04:24;12.10;1.00
75994;DHT22;64680;53.800;9.988;2023-05-10T01:06:53;12.10;1.00
75994;DHT22;64680;53.800;9.988;2023-05-10T01:09:20;12.00;1.00
75994;DHT22;64680;53.800;9.988;2023-05-10T01:11:47;12.00;1.00
75994;DHT22;64680;53.800;9.988;2023-05-10T01:14:15;11.90;1.00
75994;DHT22;64680;53.800;9.988;2023-05-10T01:16:42;11.90;1.00
75994;DHT22;64680;53.800;9.988;2023-05-10T01:19:25;11.90;1.00
75994;DHT22;64680;53.800;9.988;2023-05-10T01:35:18;11.80;1.00
75994;DHT22;64680;53.800;9.988;2023-05-10T01:40:42;11.90;1.00
75994;DHT22;64680;53.800;9.988;2023-05-10T01:43:21;11.80;1.00
75994;DHT22;64680;53.800;9.988;2023-05-10T01:46:05;11.70;1.00
75994;DHT22;64680;53.800;9.988;2023-05-10T01:48:38;11.70;1.00
75994;DHT22;64680;53.800;9.988;2023-05-10T01:51:06;11.60;1.00
75994;DHT22;64680;53.800;9.988;2023-05-10T01:53:34;11.60;1.00
75994;DHT22;64680;53.800;9.988;2023-05-10T01:56:03;11.50;1.00
75994;DHT22;64680;53.800;9.988;2023-05-10T01:58:31;11.50;1.00
75994;DHT22;64680;53.800;9.988;2023-05-10T02:00:58;11.50;1.00
75994;DHT22;64680;53.800;9.988;2023-05-10T02:03:27;11.40;1.00
75994;DHT22;64680;53.800;9.988;2023-05-10T02:05:54;11.40;1.00
75994;DHT22;64680;53.800;9.988;2023-05-10T02:08:22;11.40;1.00
75994;DHT22;64680;53.800;9.988;2023-05-10T02:10:50;11.40;1.00
75994;DHT22;64680;53.800;9.988;2023-05-10T02:13:17;11.40;1.00
75994;DHT22;64680;53.800;9.988;2023-05-10T02:15:43;11.30;1.00
75994;DHT22;64680;53.800;9.988;2023-05-10T02:18:13;11.30;1.00
75994;DHT22;64680;53.800;9.988;2023-05-10T02:20:41;11.20;1.00
75994;DHT22;64680;53.800;9.988;2023-05-10T02:23:08;11.20;1.00
75994;DHT22;64680;53.800;9.988;2023-05-10T02:25:35;11.20;1.00
75994;DHT22;64680;53.800;9.988;2023-05-10T02:28:03;11.20;1.00
75994;DHT22;64680;53.800;9.988;2023-05-10T02:30:30;11.10;1.00
75994;DHT22;64680;53.800;9.988;2023-05-10T02:32:57;11.10;1.00
75994;DHT22;64680;53.800;9.988;2023-05-10T02:35:25;11.10;1.00
75994;DHT22;64680;53.800;9.988;2023-05-10T02:37:52;11.10;1.00
75994;DHT22;64680;53.800;9.988;2023-05-10T02:40:19;11.10;1.00
75994;DHT22;64680;53.800;9.988;2023-05-10T02:42:47;11.00;1.00
75994;DHT22;64680;53.800;9.988;2023-05-10T02:45:18;11.00;1.00
75994;DHT22;64680;53.800;9.988;2023-05-10T02:47:44;10.90;1.00
75994;DHT22;64680;53.800;9.988;2023-05-10T02:50:10;10.90;1.00
75994;DHT22;64680;53.800;9.988;2023-05-10T02:53:00;10.90;1.00
75994;DHT22;64680;53.800;9.988;2023-05-10T02:55:33;10.90;1.00
75994;DHT22;64680;53.800;9.988;2023-05-10T02:58:01;10.80;1.00
75994;DHT22;64680;53.800;9.988;2023-05-10T03:00:28;10.80;1.00
75994;DHT22;64680;53.800;9.988;2023-05-10T03:02:53;10.80;1.00
75994;DHT22;64680;53.800;9.988;2023-05-10T03:05:19;10.80;1.00
75994;DHT22;64680;53.800;9.988;2023-05-10T03:07:46;10.80;1.00
75994;DHT22;64680;53.800;9.988;2023-05-10T03:10:12;10.70;1.00
75994;DHT22;64680;53.800;9.988;2023-05-10T03:12:52;10.70;1.00
75994;DHT22;64680;53.800;9.988;2023-05-10T03:15:37;10.70;1.00
75994;DHT22;64680;53.800;9.988;2023-05-10T03:20:47;10.70;1.00
75994;DHT22;64680;53.800;9.988;2023-05-10T03:23:25;10.70;1.00
75994;DHT22;64680;53.800;9.988;2023-05-10T03:25:52;10.60;1.00
75994;DHT22;64680;53.800;9.988;2023-05-10T03:28:18;10.60;1.00
75994;DHT22;64680;53.800;9.988;2023-05-10T03:30:46;10.60;1.00
75994;DHT22;64680;53.800;9.988;2023-05-10T03:33:12;10.60;1.00
75994;DHT22;64680;53.800;9.988;2023-05-10T03:35:38;10.50;1.00
75994;DHT22;64680;53.800;9.988;2023-05-10T03:38:04;10.50;1.00
75994;DHT22;64680;53.800;9.988;2023-05-10T03:40:30;10.60;1.00
75994;DHT22;64680;53.800;9.988;2023-05-10T03:42:57;10.60;1.00
75994;DHT22;64680;53.800;9.988;2023-05-10T03:45:23;10.50;1.00
75994;DHT22;64680;53.800;9.988;2023-05-10T03:47:49;10.50;1.00
75994;DHT22;64680;53.800;9.988;2023-05-10T03:50:14;10.60;1.00
75994;DHT22;64680;53.800;9.988;2023-05-10T03:52:40;10.60;1.00
75994;DHT22;64680;53.800;9.988;2023-05-10T03:55:06;10.60;1.00
75994;DHT22;64680;53.800;9.988;2023-05-10T03:57:33;10.60;1.00
75994;DHT22;64680;53.800;9.988;2023-05-10T03:59:58;10.60;1.00
75994;DHT22;64680;53.800;9.988;2023-05-10T04:02:24;10.60;1.00
75994;DHT22;64680;53.800;9.988;2023-05-10T04:04:50;10.60;1.00
75994;DHT22;64680;53.800;9.988;2023-05-10T04:07:15;10.70;1.00
75994;DHT22;64680;53.800;9.988;2023-05-10T04:09:41;10.70;1.00
75994;DHT22;64680;53.800;9.988;2023-05-10T04:12:07;10.80;1.00
75994;DHT22;64680;53.800;9.988;2023-05-10T04:14:33;10.90;1.00
75994;DHT22;64680;53.800;9.988;2023-05-10T04:16:58;10.90;1.00
75994;DHT22;64680;53.800;9.988;2023-05-10T04:19:24;11.00;1.00
75994;DHT22;64680;53.800;9.988;2023-05-10T04:21:54;11.00;1.00
75994;DHT22;64680;53.800;9.988;2023-05-10T04:24:19;11.10;1.00
75994;DHT22;64680;53.800;9.988;2023-05-10T04:26:45;11.10;1.00
75994;DHT22;64680;53.800;9.988;2023-05-10T04:29:10;11.20;1.00
75994;DHT22;64680;53.800;9.988;2023-05-10T04:31:36;11.30;1.00
75994;DHT22;64680;53.800;9.988;2023-05-10T04:34:02;11.40;1.00
75994;DHT22;64680;53.800;9.988;2023-05-10T04:36:27;11.40;1.00
75994;DHT22;64680;53.800;9.988;2023-05-10T04:38:54;11.50;1.00
75994;DHT22;64680;53.800;9.988;2023-05-10T04:41:20;11.40;1.00
75994;DHT22;64680;53.800;9.988;2023-05-10T04:43:46;11.40;1.00
75994;DHT22;64680;53.800;9.988;2023-05-10T04:46:12;11.40;1.00
75994;DHT22;64680;53.800;9.988;2023-05-10T04:48:37;11.50;1.00
75994;DHT22;64680;53.800;9.988;2023-05-10T04:51:03;11.60;1.00
75994;DHT22;64680;53.800;9.988;2023-05-10T04:53:29;11.80;1.00
75994;DHT22;64680;53.800;9.988;2023-05-10T04:55:55;12.10;1.00
75994;DHT22;64680;53.800;9.988;2023-05-10T04:58:20;12.30;1.00
75994;DHT22;64680;53.800;9.988;2023-05-10T05:00:46;12.60;1.00
75994;DHT22;64680;53.800;9.988;2023-05-10T05:03:11;13.00;1.00
75994;DHT22;64680;53.800;9.988;2023-05-10T05:05:37;12.90;1.00
75994;DHT22;64680;53.800;9.988;2023-05-10T05:08:03;12.90;1.00
75994;DHT22;64680;53.800;9.988;2023-05-10T05:10:29;13.00;1.00
75994;DHT22;64680;53.800;9.988;2023-05-10T05:12:55;13.30;1.00
75994;DHT22;64680;53.800;9.988;2023-05-10T05:15:20;13.70;1.00
75994;DHT22;64680;53.800;9.988;2023-05-10T05:17:46;14.10;1.00
75994;DHT22;64680;53.800;9.988;2023-05-10T05:20:12;14.60;1.00
75994;DHT22;64680;53.800;9.988;2023-05-10T05:22:38;15.10;1.00
75994;DHT22;64680;53.800;9.988;2023-05-10T05:25:04;15.30;1.00
75994;DHT22;64680;53.800;9.988;2023-05-10T05:27:31;15.50;1.00
75994;DHT22;64680;53.800;9.988;2023-05-10T05:29:57;15.60;1.00
75994;DHT22;64680;53.800;9.988;2023-05-10T05:32:24;15.80;1.00
75994;DHT22;64680;53.800;9.988;2023-05-10T05:34:50;15.90;1.00
75994;DHT22;64680;53.800;9.988;2023-05-10T05:37:17;16.00;1.00
75994;DHT22;64680;53.800;9.988;2023-05-10T05:39:43;16.10;1.00
75994;DHT22;64680;53.800;9.988;2023-05-10T05:42:10;16.20;1.00
75994;DHT22;64680;53.800;9.988;2023-05-10T05:44:35;16.20;1.00
75994;DHT22;64680;53.800;9.988;2023-05-10T05:47:01;15.90;1.00
75994;DHT22;64680;53.800;9.988;2023-05-10T05:49:27;16.00;1.00
75994;DHT22;64680;53.800;9.988;2023-05-10T05:51:52;16.00;1.00
75994;DHT22;64680;53.800;9.988;2023-05-10T05:54:18;16.60;1.00
75994;DHT22;64680;53.800;9.988;2023-05-10T05:56:43;16.60;1.00
75994;DHT22;64680;53.800;9.988;2023-05-10T05:59:10;16.90;1.00
75994;DHT22;64680;53.800;9.988;2023-05-10T06:01:35;17.00;1.00
75994;DHT22;64680;53.800;9.988;2023-05-10T06:04:01;16.90;1.00
75994;DHT22;64680;53.800;9.988;2023-05-10T06:06:27;16.70;1.00
75994;DHT22;64680;53.800;9.988;2023-05-10T06:08:53;16.70;1.00
75994;DHT22;64680;53.800;9.988;2023-05-10T06:11:18;17.20;1.00
75994;DHT22;64680;53.800;9.988;2023-05-10T06:13:47;17.40;1.00
75994;DHT22;64680;53.800;9.988;2023-05-10T06:16:13;18.20;1.00
75994;DHT22;64680;53.800;9.988;2023-05-10T06:18:38;18.50;1.00
75994;DHT22;64680;53.800;9.988;2023-05-10T06:21:04;18.40;1.00
75994;DHT22;64680;53.800;9.988;2023-05-10T06:23:30;18.30;1.00
75994;DHT22;64680;53.800;9.988;2023-05-10T06:25:55;18.10;1.00
75994;DHT22;64680;53.800;9.988;2023-05-10T06:28:22;18.80;1.00
75994;DHT22;64680;53.800;9.988;2023-05-10T06:30:48;19.70;1.00
75994;DHT22;64680;53.800;9.988;2023-05-10T06:33:13;19.80;1.00
75994;DHT22;64680;53.800;9.988;2023-05-10T06:35:39;19.90;1.00
75994;DHT22;64680;53.800;9.988;2023-05-10T06:38:06;20.40;1.00
75994;DHT22;64680;53.800;9.988;2023-05-10T06:40:31;20.90;1.00
75994;DHT22;64680;53.800;9.988;2023-05-10T06:42:58;20.90;1.00
75994;DHT22;64680;53.800;9.988;2023-05-10T06:45:23;20.80;1.00
75994;DHT22;64680;53.800;9.988;2023-05-10T06:47:49;20.70;1.00
75994;DHT22;64680;53.800;9.988;2023-05-10T06:50:14;20.20;1.00
75994;DHT22;64680;53.800;9.988;2023-05-10T06:52:40;20.10;1.00
75994;DHT22;64680;53.800;9.988;2023-05-10T06:55:06;20.70;1.00
75994;DHT22;64680;53.800;9.988;2023-05-10T06:57:32;21.10;1.00
75994;DHT22;64680;53.800;9.988;2023-05-10T07:00:01;20.80;1.00
75994;DHT22;64680;53.800;9.988;2023-05-10T07:02:29;20.20;1.00
75994;DHT22;64680;53.800;9.988;2023-05-10T07:04:55;19.90;1.00
75994;DHT22;64680;53.800;9.988;2023-05-10T07:07:20;20.00;1.00
75994;DHT22;64680;53.800;9.988;2023-05-10T07:09:46;19.60;1.00
75994;DHT22;64680;53.800;9.988;2023-05-10T07:12:12;20.00;1.00
75994;DHT22;64680;53.800;9.988;2023-05-10T07:14:37;20.50;1.00
75994;DHT22;64680;53.800;9.988;2023-05-10T07:17:03;19.90;1.00
75994;DHT22;64680;53.800;9.988;2023-05-10T07:19:29;19.70;1.00
75994;DHT22;64680;53.800;9.988;2023-05-10T07:21:55;19.00;1.00
75994;DHT22;64680;53.800;9.988;2023-05-10T07:24:20;18.40;1.00
75994;DHT22;64680;53.800;9.988;2023-05-10T07:26:46;18.20;1.00
75994;DHT22;64680;53.800;9.988;2023-05-10T07:29:12;18.30;1.00
75994;DHT22;64680;53.800;9.988;2023-05-10T07:31:37;18.30;1.00
75994;DHT22;64680;53.800;9.988;2023-05-10T07:34:03;18.10;1.00
75994;DHT22;64680;53.800;9.988;2023-05-10T07:36:29;18.20;1.00
75994;DHT22;64680;53.800;9.988;2023-05-10T07:38:54;18.60;1.00
75994;DHT22;64680;53.800;9.988;2023-05-10T07:41:20;19.30;1.00
75994;DHT22;64680;53.800;9.988;2023-05-10T07:43:46;19.80;1.00
75994;DHT22;64680;53.800;9.988;2023-05-10T07:46:12;19.80;1.00
75994;DHT22;64680;53.800;9.988;2023-05-10T07:48:37;19.70;1.00
75994;DHT22;64680;53.800;9.988;2023-05-10T07:51:03;19.60;1.00
75994;DHT22;64680;53.800;9.988;2023-05-10T07:53:28;20.10;1.00
75994;DHT22;64680;53.800;9.988;2023-05-10T07:55:57;20.30;1.00
75994;DHT22;64680;53.800;9.988;2023-05-10T07:58:24;20.90;1.00
75994;DHT22;64680;53.800;9.988;2023-05-10T08:00:49;21.30;1.00
75994;DHT22;64680;53.800;9.988;2023-05-10T08:03:15;21.60;1.00
75994;DHT22;64680;53.800;9.988;2023-05-10T08:05:41;21.80;1.00
75994;DHT22;64680;53.800;9.988;2023-05-10T08:08:07;21.70;1.00
75994;DHT22;64680;53.800;9.988;2023-05-10T08:10:32;21.60;1.00
75994;DHT22;64680;53.800;9.988;2023-05-10T08:12:58;20.80;1.00
75994;DHT22;64680;53.800;9.988;2023-05-10T08:15:24;20.40;1.00
75994;DHT22;64680;53.800;9.988;2023-05-10T08:17:51;20.30;1.00
75994;DHT22;64680;53.800;9.988;2023-05-10T08:20:17;20.70;1.00
75994;DHT22;64680;53.800;9.988;2023-05-10T08:22:45;20.60;1.00
75994;DHT22;64680;53.800;9.988;2023-05-10T08:25:10;20.10;1.00
75994;DHT22;64680;53.800;9.988;2023-05-10T08:27:36;19.60;1.00
75994;DHT22;64680;53.800;9.988;2023-05-10T08:30:01;19.00;1.00
75994;DHT22;64680;53.800;9.988;2023-05-10T08:32:27;18.90;1.00
75994;DHT22;64680;53.800;9.988;2023-05-10T08:34:53;18.70;1.00
75994;DHT22;64680;53.800;9.988;2023-05-10T08:37:18;18.70;1.00
75994;DHT22;64680;53.800;9.988;2023-05-10T08:39:44;18.50;1.00
75994;DHT22;64680;53.800;9.988;2023-05-10T08:42:16;18.40;1.00
75994;DHT22;64680;53.800;9.988;2023-05-10T08:44:47;18.50;1.00
75994;DHT22;64680;53.800;9.988;2023-05-10T08:47:15;18.30;1.00
75994;DHT22;64680;53.800;9.988;2023-05-10T08:49:41;18.30;1.00
75994;DHT22;64680;53.800;9.988;2023-05-10T08:52:08;18.20;1.00
75994;DHT22;64680;53.800;9.988;2023-05-10T08:54:35;18.10;1.00
75994;DHT22;64680;53.800;9.988;2023-05-10T08:57:01;18.00;1.00
75994;DHT22;64680;53.800;9.988;2023-05-10T08:59:27;18.00;1.00
75994;DHT22;64680;53.800;9.988;2023-05-10T09:01:54;18.20;1.00
75994;DHT22;64680;53.800;9.988;2023-05-10T09:04:21;18.20;1.00
75994;DHT22;64680;53.800;9.988;2023-05-10T09:06:46;18.10;1.00
75994;DHT22;64680;53.800;9.988;2023-05-10T09:09:12;18.20;1.00
75994;DHT22;64680;53.800;9.988;2023-05-10T09:11:38;18.30;1.00
75994;DHT22;64680;53.800;9.988;2023-05-10T09:14:04;18.30;1.00
75994;DHT22;64680;53.800;9.988;2023-05-10T09:16:30;18.20;1.00
75994;DHT22;64680;53.800;9.988;2023-05-10T09:18:56;18.40;1.00
75994;DHT22;64680;53.800;9.988;2023-05-10T09:21:21;18.50;1.00
75994;DHT22;64680;53.800;9.988;2023-05-10T09:23:47;18.50;1.00
75994;DHT22;64680;53.800;9.988;2023-05-10T09:26:15;18.60;1.00
75994;DHT22;64680;53.800;9.988;2023-05-10T09:28:58;18.40;1.00
75994;DHT22;64680;53.800;9.988;2023-05-10T09:31:25;18.40;1.00
75994;DHT22;64680;53.800;9.988;2023-05-10T09:34:08;18.40;1.00
75994;DHT22;64680;53.800;9.988;2023-05-10T09:36:33;18.70;1.00
75994;DHT22;64680;53.800;9.988;2023-05-10T09:38:59;18.70;1.00
75994;DHT22;64680;53.800;9.988;2023-05-10T09:41:25;18.50;1.00
75994;DHT22;64680;53.800;9.988;2023-05-10T09:43:55;18.40;1.00
75994;DHT22;64680;53.800;9.988;2023-05-10T09:46:21;18.50;1.00
75994;DHT22;64680;53.800;9.988;2023-05-10T09:48:48;18.60;1.00
75994;DHT22;64680;53.800;9.988;2023-05-10T09:51:24;18.70;1.00
75994;DHT22;64680;53.800;9.988;2023-05-10T09:54:15;18.60;1.00
75994;DHT22;64680;53.800;9.988;2023-05-10T09:56:41;19.00;1.00
75994;DHT22;64680;53.800;9.988;2023-05-10T09:59:11;19.10;1.00
75994;DHT22;64680;53.800;9.988;2023-05-10T10:01:37;19.10;1.00
75994;DHT22;64680;53.800;9.988;2023-05-10T10:04:09;18.90;1.00
75994;DHT22;64680;53.800;9.988;2023-05-10T10:06:38;18.80;1.00
75994;DHT22;64680;53.800;9.988;2023-05-10T10:09:05;18.50;1.00
75994;DHT22;64680;53.800;9.988;2023-05-10T10:11:33;18.60;1.00
75994;DHT22;64680;53.800;9.988;2023-05-10T10:13:59;18.80;1.00
75994;DHT22;64680;53.800;9.988;2023-05-10T10:16:29;18.70;1.00
75994;DHT22;64680;53.800;9.988;2023-05-10T10:18:56;18.60;1.00
75994;DHT22;64680;53.800;9.988;2023-05-10T10:21:22;18.50;1.00
75994;DHT22;64680;53.800;9.988;2023-05-10T10:23:48;18.60;1.00
75994;DHT22;64680;53.800;9.988;2023-05-10T10:26:14;18.70;1.00
75994;DHT22;64680;53.800;9.988;2023-05-10T10:28:46;18.60;1.00
75994;DHT22;64680;53.800;9.988;2023-05-10T10:36:24;18.10;1.00
75994;DHT22;64680;53.800;9.988;2023-05-10T10:41:35;17.40;1.00
75994;DHT22;64680;53.800;9.988;2023-05-10T10:49:24;15.90;1.00
75994;DHT22;64680;53.800;9.988;2023-05-10T10:54:59;15.20;1.00
75994;DHT22;64680;53.800;9.988;2023-05-10T10:57:26;15.00;1.00
75994;DHT22;64680;53.800;9.988;2023-05-10T10:59:58;14.50;6.10
75994;DHT22;64680;53.800;9.988;2023-05-10T11:02:44;14.20;15.20
75994;DHT22;64680;53.800;9.988;2023-05-10T11:10:38;13.50;30.30
75994;DHT22;64680;53.800;9.988;2023-05-10T11:13:06;13.30;42.20
75994;DHT22;64680;53.800;9.988;2023-05-10T11:15:33;13.20;36.60
75994;DHT22;64680;53.800;9.988;2023-05-10T11:18:00;13.20;52.40
75994;DHT22;64680;53.800;9.988;2023-05-10T11:20:40;13.20;54.10
75994;DHT22;64680;53.800;9.988;2023-05-10T11:23:13;13.20;56.20
75994;DHT22;64680;53.800;9.988;2023-05-10T11:25:44;13.30;59.10
75994;DHT22;64680;53.800;9.988;2023-05-10T11:28:14;13.30;55.50
75994;DHT22;64680;53.800;9.988;2023-05-10T11:30:43;13.40;55.20
75994;DHT22;64680;53.800;9.988;2023-05-10T11:33:14;13.40;51.00
75994;DHT22;64680;53.800;9.988;2023-05-10T11:35:41;13.20;51.40
75994;DHT22;64680;53.800;9.988;2023-05-10T11:38:10;13.20;52.80
75994;DHT22;64680;53.800;9.988;2023-05-10T11:40:37;13.20;56.50
75994;DHT22;64680;53.800;9.988;2023-05-10T11:43:03;13.20;53.40
75994;DHT22;64680;53.800;9.988;2023-05-10T11:45:32;13.30;56.90
75994;DHT22;64680;53.800;9.988;2023-05-10T11:47:59;13.30;55.90
75994;DHT22;64680;53.800;9.988;2023-05-10T11:50:25;13.50;55.20
75994;DHT22;64680;53.800;9.988;2023-05-10T11:52:55;13.60;53.50
75994;DHT22;64680;53.800;9.988;2023-05-10T11:55:21;13.60;51.10
75994;DHT22;64680;53.800;9.988;2023-05-10T11:57:47;13.70;51.40
75994;DHT22;64680;53.800;9.988;2023-05-10T12:00:16;13.60;50.60
75994;DHT22;64680;53.800;9.988;2023-05-10T12:02:42;13.80;55.40
75994;DHT22;64680;53.800;9.988;2023-05-10T12:05:08;14.10;58.20
75994;DHT22;64680;53.800;9.988;2023-05-10T12:07:34;14.20;56.30
75994;DHT22;64680;53.800;9.988;2023-05-10T12:12:41;14.40;42.70
75994;DHT22;64680;53.800;9.988;2023-05-10T12:15:23;14.40;42.40
75994;DHT22;64680;53.800;9.988;2023-05-10T12:17:50;14.50;42.70
75994;DHT22;64680;53.800;9.988;2023-05-10T12:20:27;14.40;40.80
75994;DHT22;64680;53.800;9.988;2023-05-10T12:22:55;14.30;41.70
75994;DHT22;64680;53.800;9.988;2023-05-10T12:25:22;14.30;36.60
75994;DHT22;64680;53.800;9.988;2023-05-10T12:27:52;14.20;39.50
75994;DHT22;64680;53.800;9.988;2023-05-10T12:30:26;14.30;37.30
75994;DHT22;64680;53.800;9.988;2023-05-10T12:32:52;14.30;40.30
75994;DHT22;64680;53.800;9.988;2023-05-10T12:35:18;14.40;47.30
75994;DHT22;64680;53.800;9.988;2023-05-10T12:37:47;14.50;48.60
75994;DHT22;64680;53.800;9.988;2023-05-10T12:40:13;14.50;41.30
75994;DHT22;64680;53.800;9.988;2023-05-10T12:42:40;14.40;47.90
75994;DHT22;64680;53.800;9.988;2023-05-10T12:45:06;14.40;39.50
75994;DHT22;64680;53.800;9.988;2023-05-10T12:47:33;14.20;40.90
75994;DHT22;64680;53.800;9.988;2023-05-10T12:50:00;14.10;44.40
75994;DHT22;64680;53.800;9.988;2023-05-10T12:52:27;14.20;49.50
75994;DHT22;64680;53.800;9.988;2023-05-10T12:54:53;14.20;48.20
75994;DHT22;64680;53.800;9.988;2023-05-10T12:57:22;14.30;44.80
75994;DHT22;64680;53.800;9.988;2023-05-10T12:59:47;14.40;49.00
75994;DHT22;64680;53.800;9.988;2023-05-10T13:02:13;14.50;44.10
75994;DHT22;64680;53.800;9.988;2023-05-10T13:04:40;14.60;46.10
75994;DHT22;64680;53.800;9.988;2023-05-10T13:07:07;14.70;44.50
75994;DHT22;64680;53.800;9.988;2023-05-10T13:09:33;14.90;43.30
75994;DHT22;64680;53.800;9.988;2023-05-10T13:11:58;14.80;37.40
75994;DHT22;64680;53.800;9.988;2023-05-10T13:14:24;14.90;37.50
75994;DHT22;64680;53.800;9.988;2023-05-10T13:16:50;15.20;42.10
75994;DHT22;64680;53.800;9.988;2023-05-10T13:19:16;15.40;39.20
75994;DHT22;64680;53.800;9.988;2023-05-10T13:21:42;15.60;37.40
75994;DHT22;64680;53.800;9.988;2023-05-10T13:24:10;15.90;35.70
75994;DHT22;64680;53.800;9.988;2023-05-10T13:26:36;16.10;37.80
75994;DHT22;64680;53.800;9.988;2023-05-10T13:29:02;16.20;31.70
75994;DHT22;64680;53.800;9.988;2023-05-10T13:31:28;16.20;29.40
75994;DHT22;64680;53.800;9.988;2023-05-10T13:33:54;16.00;23.80
75994;DHT22;64680;53.800;9.988;2023-05-10T13:36:19;16.10;35.90
75994;DHT22;64680;53.800;9.988;2023-05-10T13:38:45;16.20;31.70
75994;DHT22;64680;53.800;9.988;2023-05-10T13:41:11;16.00;26.20
75994;DHT22;64680;53.800;9.988;2023-05-10T13:43:37;16.00;22.20
75994;DHT22;64680;53.800;9.988;2023-05-10T13:46:02;16.10;35.80
75994;DHT22;64680;53.800;9.988;2023-05-10T13:48:28;16.10;29.40
75994;DHT22;64680;53.800;9.988;2023-05-10T13:50:54;16.20;31.20
75994;DHT22;64680;53.800;9.988;2023-05-10T13:53:20;16.20;29.00
75994;DHT22;64680;53.800;9.988;2023-05-10T13:55:46;16.30;28.50
75994;DHT22;64680;53.800;9.988;2023-05-10T13:58:12;16.40;22.40
75994;DHT22;64680;53.800;9.988;2023-05-10T14:00:38;16.80;18.50
75994;DHT22;64680;53.800;9.988;2023-05-10T14:03:03;17.10;14.50
75994;DHT22;64680;53.800;9.988;2023-05-10T14:05:30;17.10;13.00
75994;DHT22;64680;53.800;9.988;2023-05-10T14:07:56;17.20;14.00
75994;DHT22;64680;53.800;9.988;2023-05-10T14:10:22;17.40;13.00
75994;DHT22;64680;53.800;9.988;2023-05-10T14:12:48;17.50;11.80
75994;DHT22;64680;53.800;9.988;2023-05-10T14:15:13;17.40;7.20
75994;DHT22;64680;53.800;9.988;2023-05-10T14:17:39;17.30;8.10
75994;DHT22;64680;53.800;9.988;2023-05-10T14:20:05;17.30;7.20
75994;DHT22;64680;53.800;9.988;2023-05-10T14:22:31;17.10;8.10
75994;DHT22;64680;53.800;9.988;2023-05-10T14:24:56;17.00;10.80
75994;DHT22;64680;53.800;9.988;2023-05-10T14:27:22;16.90;10.10
75994;DHT22;64680;53.800;9.988;2023-05-10T14:29:48;16.80;12.60
75994;DHT22;64680;53.800;9.988;2023-05-10T14:32:14;16.80;11.50
75994;DHT22;64680;53.800;9.988;2023-05-10T14:34:39;16.60;11.90
75994;DHT22;64680;53.800;9.988;2023-05-10T14:37:05;16.40;15.40
75994;DHT22;64680;53.800;9.988;2023-05-10T14:39:31;16.40;16.70
75994;DHT22;64680;53.800;9.988;2023-05-10T14:41:57;16.30;15.80
75994;DHT22;64680;53.800;9.988;2023-05-10T14:44:22;16.30;17.90
75994;DHT22;64680;53.800;9.988;2023-05-10T14:46:48;16.30;16.80
75994;DHT22;64680;53.800;9.988;2023-05-10T14:49:15;16.30;15.50
75994;DHT22;64680;53.800;9.988;2023-05-10T14:51:40;16.20;17.70
75994;DHT22;64680;53.800;9.988;2023-05-10T14:54:06;16.20;20.30
75994;DHT22;64680;53.800;9.988;2023-05-10T14:56:32;16.20;16.30
75994;DHT22;64680;53.800;9.988;2023-05-10T14:58:57;16.10;16.70
75994;DHT22;64680;53.800;9.988;2023-05-10T15:01:23;16.20;18.00
75994;DHT22;64680;53.800;9.988;2023-05-10T15:03:49;16.20;13.20
75994;DHT22;64680;53.800;9.988;2023-05-10T15:06:15;16.30;10.40
75994;DHT22;64680;53.800;9.988;2023-05-10T15:08:41;16.50;10.70
75994;DHT22;64680;53.800;9.988;2023-05-10T15:11:07;16.50;11.60
75994;DHT22;64680;53.800;9.988;2023-05-10T15:13:33;16.50;9.60
75994;DHT22;64680;53.800;9.988;2023-05-10T15:15:58;16.30;8.20
75994;DHT22;64680;53.800;9.988;2023-05-10T15:18:24;16.10;10.20
75994;DHT22;64680;53.800;9.988;2023-05-10T15:20:49;16.20;9.10
75994;DHT22;64680;53.800;9.988;2023-05-10T15:23:15;16.40;8.00
75994;DHT22;64680;53.800;9.988;2023-05-10T15:25:41;16.70;8.10
75994;DHT22;64680;53.800;9.988;2023-05-10T15:28:06;16.80;8.80
75994;DHT22;64680;53.800;9.988;2023-05-10T15:30:32;16.80;7.90
75994;DHT22;64680;53.800;9.988;2023-05-10T15:32:57;16.90;7.50
75994;DHT22;64680;53.800;9.988;2023-05-10T15:35:23;16.70;6.50
75994;DHT22;64680;53.800;9.988;2023-05-10T15:37:49;16.50;7.80
75994;DHT22;64680;53.800;9.988;2023-05-10T15:40:15;16.40;10.00
75994;DHT22;64680;53.800;9.988;2023-05-10T15:42:40;16.20;11.70
75994;DHT22;64680;53.800;9.988;2023-05-10T15:45:06;16.30;12.00
75994;DHT22;64680;53.800;9.988;2023-05-10T15:47:32;16.30;10.70
75994;DHT22;64680;53.800;9.988;2023-05-10T15:49:58;16.40;10.20
75994;DHT22;64680;53.800;9.988;2023-05-10T15:52:24;16.50;8.90
75994;DHT22;64680;53.800;9.988;2023-05-10T15:54:50;16.70;10.70
75994;DHT22;64680;53.800;9.988;2023-05-10T15:57:16;16.80;2.70
75994;DHT22;64680;53.800;9.988;2023-05-10T15:59:41;16.80;2.90
75994;DHT22;64680;53.800;9.988;2023-05-10T16:02:08;16.70;5.20
75994;DHT22;64680;53.800;9.988;2023-05-10T16:04:35;16.70;7.20
75994;DHT22;64680;53.800;9.988;2023-05-10T16:07:01;16.80;6.10
75994;DHT22;64680;53.800;9.988;2023-05-10T16:09:27;16.90;6.10
75994;DHT22;64680;53.800;9.988;2023-05-10T16:11:52;16.90;5.50
75994;DHT22;64680;53.800;9.988;2023-05-10T16:14:18;17.00;3.40
75994;DHT22;64680;53.800;9.988;2023-05-10T16:16:45;17.00;3.00
75994;DHT22;64680;53.800;9.988;2023-05-10T16:19:12;16.90;1.00
75994;DHT22;64680;53.800;9.988;2023-05-10T16:21:37;16.80;1.10
75994;DHT22;64680;53.800;9.988;2023-05-10T16:24:03;16.70;2.40